N7780B PARC-PAFA
Flight info
| Callsign | N7780B |
|---|---|
| Flight time | 1h 31m |
| Altitude | 10000 |
| Route | TUVVO ZUREP |
| Aircraft | DC6/M-SDE1FGHIJ1RWXY/D1E2A1 |
Departure
| Time | 2026-04-17 15:35 |
|---|---|
| Airport | Arctic Village Airport (PARC) |
Arrival
| Time | 2026-04-17 17:06 |
|---|---|
| Airport | Fairbanks International Airport (PAFA) |
| Time | Latitude | Longitude | Altitude | Speed | Heading |
|---|---|---|---|---|---|
| 2026-04-17 15:08 | 68.11306 | -145.57481 | 2107 ft | 0 kts | 228° |
| 2026-04-17 15:24 | 68.11306 | -145.57480 | 2107 ft | 0 kts | 228° |
| 2026-04-17 15:25 | 68.11306 | -145.57481 | 2107 ft | 0 kts | 228° |
| 2026-04-17 15:25 | 68.11299 | -145.57511 | 2107 ft | 1 kts | 269° |
| 2026-04-17 15:25 | 68.11305 | -145.57539 | 2107 ft | 5 kts | 303° |
| 2026-04-17 15:26 | 68.11339 | -145.57689 | 2107 ft | 14 kts | 300° |
| 2026-04-17 15:26 | 68.11394 | -145.57842 | 2107 ft | 2 kts | 327° |
| 2026-04-17 15:26 | 68.11427 | -145.57921 | 2107 ft | 11 kts | 322° |
| 2026-04-17 15:26 | 68.11464 | -145.57907 | 2107 ft | 9 kts | 37° |
| 2026-04-17 15:27 | 68.11534 | -145.57730 | 2108 ft | 18 kts | 48° |
| 2026-04-17 15:27 | 68.11640 | -145.57441 | 2109 ft | 26 kts | 43° |
| 2026-04-17 15:27 | 68.11791 | -145.57056 | 2106 ft | 34 kts | 45° |
| 2026-04-17 15:27 | 68.11872 | -145.56807 | 2108 ft | 0 kts | 339° |
| 2026-04-17 15:28 | 68.11873 | -145.56811 | 2108 ft | 1 kts | 304° |
| 2026-04-17 15:28 | 68.11874 | -145.56823 | 2108 ft | 1 kts | 259° |
| 2026-04-17 15:28 | 68.11872 | -145.56832 | 2108 ft | 1 kts | 217° |
| 2026-04-17 15:28 | 68.11869 | -145.56837 | 2108 ft | 0 kts | 211° |
| 2026-04-17 15:34 | 68.11868 | -145.56839 | 2108 ft | 2 kts | 211° |
| 2026-04-17 15:34 | 68.11838 | -145.56894 | 2108 ft | 25 kts | 217° |
| 2026-04-17 15:34 | 68.11537 | -145.57696 | 2110 ft | 95 kts | 225° |
| 2026-04-17 15:35 | 68.10988 | -145.59197 | 2218 ft | 123 kts | 227° |
| 2026-04-17 15:35 | 68.10393 | -145.61029 | 2453 ft | 138 kts | 231° |
| 2026-04-17 15:35 | 68.09778 | -145.63128 | 2680 ft | 153 kts | 232° |
| 2026-04-17 15:35 | 68.09082 | -145.65508 | 2881 ft | 166 kts | 232° |
| 2026-04-17 15:36 | 68.08442 | -145.67897 | 3493 ft | 151 kts | 237° |
| 2026-04-17 15:36 | 68.07781 | -145.70249 | 3694 ft | 166 kts | 230° |
| 2026-04-17 15:36 | 68.06977 | -145.72632 | 3913 ft | 176 kts | 227° |
| 2026-04-17 15:36 | 68.06057 | -145.74786 | 4218 ft | 177 kts | 219° |
| 2026-04-17 15:37 | 68.05052 | -145.76831 | 4345 ft | 189 kts | 216° |
| 2026-04-17 15:37 | 68.03944 | -145.78855 | 4636 ft | 192 kts | 213° |
| 2026-04-17 15:37 | 68.02810 | -145.80714 | 4977 ft | 193 kts | 210° |
| 2026-04-17 15:37 | 68.01614 | -145.82501 | 5202 ft | 199 kts | 208° |
| 2026-04-17 15:38 | 68.00377 | -145.84237 | 5426 ft | 204 kts | 207° |
| 2026-04-17 15:38 | 67.99100 | -145.85943 | 5721 ft | 204 kts | 206° |
| 2026-04-17 15:38 | 67.97837 | -145.87629 | 6067 ft | 202 kts | 206° |
| 2026-04-17 15:38 | 67.96575 | -145.89317 | 6307 ft | 205 kts | 207° |
| 2026-04-17 15:39 | 67.95294 | -145.91095 | 6504 ft | 209 kts | 208° |
| 2026-04-17 15:39 | 67.94012 | -145.92924 | 6802 ft | 208 kts | 207° |
| 2026-04-17 15:39 | 67.92688 | -145.94431 | 7115 ft | 207 kts | 200° |
| 2026-04-17 15:39 | 67.91312 | -145.95579 | 7357 ft | 209 kts | 195° |
| 2026-04-17 15:40 | 67.89894 | -145.96498 | 7606 ft | 209 kts | 194° |
| 2026-04-17 15:40 | 67.88477 | -145.97245 | 7859 ft | 207 kts | 185° |
| 2026-04-17 15:40 | 67.87056 | -145.96536 | 8090 ft | 211 kts | 160° |
| 2026-04-17 15:40 | 67.85713 | -145.94974 | 8375 ft | 211 kts | 157° |
| 2026-04-17 15:41 | 67.84366 | -145.93390 | 8660 ft | 212 kts | 157° |
| 2026-04-17 15:41 | 67.83007 | -145.91869 | 8940 ft | 212 kts | 161° |
| 2026-04-17 15:41 | 67.81583 | -145.90914 | 9208 ft | 211 kts | 173° |
| 2026-04-17 15:41 | 67.80123 | -145.90699 | 9473 ft | 210 kts | 184° |
| 2026-04-17 15:42 | 67.78679 | -145.91368 | 9681 ft | 213 kts | 199° |
| 2026-04-17 15:42 | 67.77298 | -145.92821 | 9878 ft | 216 kts | 205° |
| 2026-04-17 15:42 | 67.75895 | -145.94358 | 10047 ft | 219 kts | 204° |
| 2026-04-17 15:42 | 67.74443 | -145.95817 | 10080 ft | 228 kts | 203° |
| 2026-04-17 15:43 | 67.72929 | -145.97241 | 10068 ft | 234 kts | 197° |
| 2026-04-17 15:43 | 67.71292 | -145.96948 | 10061 ft | 245 kts | 162° |
| 2026-04-17 15:43 | 67.69781 | -145.94826 | 10087 ft | 245 kts | 153° |
| 2026-04-17 15:43 | 67.68299 | -145.92678 | 10081 ft | 243 kts | 154° |
| 2026-04-17 15:44 | 67.66798 | -145.90703 | 10078 ft | 240 kts | 160° |
| 2026-04-17 15:44 | 67.65216 | -145.89434 | 10074 ft | 236 kts | 170° |
| 2026-04-17 15:44 | 67.63598 | -145.88888 | 10074 ft | 234 kts | 180° |
| 2026-04-17 15:44 | 67.61988 | -145.89159 | 10058 ft | 230 kts | 193° |
| 2026-04-17 15:45 | 67.60466 | -145.90338 | 10073 ft | 227 kts | 201° |
| 2026-04-17 15:45 | 67.58968 | -145.91634 | 10069 ft | 227 kts | 200° |
| 2026-04-17 15:45 | 67.57470 | -145.92884 | 10084 ft | 226 kts | 200° |
| 2026-04-17 15:45 | 67.55973 | -145.94141 | 10073 ft | 224 kts | 200° |
| 2026-04-17 15:46 | 67.54500 | -145.95374 | 10077 ft | 222 kts | 200° |
| 2026-04-17 15:46 | 67.53030 | -145.96604 | 10075 ft | 221 kts | 200° |
| 2026-04-17 15:46 | 67.51570 | -145.97825 | 10073 ft | 220 kts | 200° |
| 2026-04-17 15:46 | 67.50112 | -145.99038 | 10076 ft | 219 kts | 200° |
| 2026-04-17 15:47 | 67.48659 | -146.00247 | 10087 ft | 219 kts | 200° |
| 2026-04-17 15:47 | 67.47213 | -146.01456 | 10093 ft | 218 kts | 200° |
| 2026-04-17 15:47 | 67.45765 | -146.02656 | 10085 ft | 218 kts | 200° |
| 2026-04-17 15:47 | 67.44320 | -146.03862 | 10093 ft | 218 kts | 200° |
| 2026-04-17 15:48 | 67.42873 | -146.05061 | 10085 ft | 218 kts | 200° |
| 2026-04-17 15:48 | 67.41427 | -146.06250 | 10103 ft | 217 kts | 200° |
| 2026-04-17 15:48 | 67.40155 | -146.07304 | 10212 ft | 212 kts | 200° |
| 2026-04-17 15:48 | 67.38753 | -146.08463 | 10271 ft | 212 kts | 200° |
| 2026-04-17 15:49 | 67.37348 | -146.09627 | 10275 ft | 213 kts | 201° |
| 2026-04-17 15:49 | 67.35929 | -146.10798 | 10274 ft | 214 kts | 200° |
| 2026-04-17 15:49 | 67.34508 | -146.11962 | 10276 ft | 215 kts | 201° |
| 2026-04-17 15:49 | 67.33077 | -146.13137 | 10279 ft | 215 kts | 200° |
| 2026-04-17 15:50 | 67.31648 | -146.14311 | 10279 ft | 216 kts | 201° |
| 2026-04-17 15:50 | 67.30218 | -146.15490 | 10281 ft | 216 kts | 200° |
| 2026-04-17 15:50 | 67.28783 | -146.16665 | 10281 ft | 217 kts | 200° |
| 2026-04-17 15:50 | 67.27341 | -146.17842 | 10281 ft | 217 kts | 200° |
| 2026-04-17 15:51 | 67.25904 | -146.19016 | 10283 ft | 217 kts | 200° |
| 2026-04-17 15:51 | 67.24466 | -146.20191 | 10284 ft | 217 kts | 200° |
| 2026-04-17 15:51 | 67.23029 | -146.21361 | 10283 ft | 217 kts | 200° |
| 2026-04-17 15:51 | 67.21594 | -146.22532 | 10282 ft | 217 kts | 200° |
| 2026-04-17 15:52 | 67.20153 | -146.23706 | 10283 ft | 217 kts | 200° |
| 2026-04-17 15:52 | 67.18714 | -146.24871 | 10286 ft | 217 kts | 200° |
| 2026-04-17 15:52 | 67.17276 | -146.26043 | 10281 ft | 217 kts | 200° |
| 2026-04-17 15:52 | 67.15835 | -146.27199 | 10286 ft | 217 kts | 200° |
| 2026-04-17 15:53 | 67.14394 | -146.28368 | 10284 ft | 217 kts | 200° |
| 2026-04-17 15:53 | 67.12950 | -146.29540 | 10284 ft | 217 kts | 200° |
| 2026-04-17 15:53 | 67.11509 | -146.30705 | 10284 ft | 217 kts | 200° |
| 2026-04-17 15:53 | 67.10068 | -146.31866 | 10281 ft | 217 kts | 200° |
| 2026-04-17 15:54 | 67.08625 | -146.33029 | 10280 ft | 217 kts | 200° |
| 2026-04-17 15:54 | 67.07184 | -146.34185 | 10280 ft | 217 kts | 200° |
| 2026-04-17 15:54 | 67.05744 | -146.35345 | 10281 ft | 217 kts | 200° |
| 2026-04-17 15:54 | 67.04305 | -146.36502 | 10284 ft | 217 kts | 200° |
| 2026-04-17 15:55 | 67.02868 | -146.37650 | 10284 ft | 216 kts | 200° |
| 2026-04-17 15:55 | 67.01431 | -146.38802 | 10285 ft | 216 kts | 200° |
| 2026-04-17 15:55 | 66.99997 | -146.39948 | 10284 ft | 216 kts | 200° |
| 2026-04-17 15:55 | 66.98555 | -146.41103 | 10284 ft | 216 kts | 200° |
| 2026-04-17 15:56 | 66.97607 | -146.41859 | 10276 ft | 217 kts | 200° |
| 2026-04-17 15:56 | 66.96164 | -146.43004 | 10275 ft | 216 kts | 200° |
| 2026-04-17 15:56 | 66.94731 | -146.44144 | 10275 ft | 216 kts | 201° |
| 2026-04-17 15:56 | 66.93296 | -146.45294 | 10275 ft | 216 kts | 200° |
| 2026-04-17 15:57 | 66.91862 | -146.46434 | 10273 ft | 216 kts | 200° |
| 2026-04-17 15:57 | 66.90423 | -146.47573 | 10275 ft | 216 kts | 200° |
| 2026-04-17 15:57 | 66.88991 | -146.48710 | 10275 ft | 216 kts | 200° |
| 2026-04-17 15:57 | 66.87553 | -146.49845 | 10276 ft | 216 kts | 200° |
| 2026-04-17 15:58 | 66.86119 | -146.50977 | 10276 ft | 216 kts | 200° |
| 2026-04-17 15:58 | 66.84681 | -146.52117 | 10276 ft | 216 kts | 200° |
| 2026-04-17 15:58 | 66.83242 | -146.53249 | 10276 ft | 216 kts | 200° |
| 2026-04-17 15:58 | 66.81804 | -146.54382 | 10278 ft | 216 kts | 201° |
| 2026-04-17 15:59 | 66.80367 | -146.55512 | 10280 ft | 216 kts | 201° |
| 2026-04-17 15:59 | 66.78933 | -146.56642 | 10215 ft | 218 kts | 200° |
| 2026-04-17 15:59 | 66.77446 | -146.57814 | 9930 ft | 228 kts | 200° |
| 2026-04-17 15:59 | 66.75909 | -146.59008 | 9660 ft | 233 kts | 200° |
| 2026-04-17 16:00 | 66.74348 | -146.60231 | 9388 ft | 236 kts | 199° |
| 2026-04-17 16:00 | 66.72778 | -146.61466 | 9122 ft | 237 kts | 199° |
| 2026-04-17 16:00 | 66.71210 | -146.62689 | 8842 ft | 236 kts | 199° |
| 2026-04-17 16:00 | 66.69638 | -146.63896 | 8565 ft | 237 kts | 199° |
| 2026-04-17 16:01 | 66.68063 | -146.65153 | 8291 ft | 238 kts | 199° |
| 2026-04-17 16:01 | 66.66480 | -146.66383 | 8018 ft | 239 kts | 198° |
| 2026-04-17 16:01 | 66.64889 | -146.67610 | 7751 ft | 240 kts | 198° |
| 2026-04-17 16:01 | 66.63294 | -146.68846 | 7485 ft | 240 kts | 198° |
| 2026-04-17 16:02 | 66.61699 | -146.70088 | 7225 ft | 241 kts | 198° |
| 2026-04-17 16:02 | 66.60095 | -146.71328 | 6961 ft | 241 kts | 198° |
| 2026-04-17 16:02 | 66.58494 | -146.72562 | 6702 ft | 241 kts | 198° |
| 2026-04-17 16:02 | 66.56893 | -146.73797 | 6441 ft | 240 kts | 198° |
| 2026-04-17 16:03 | 66.55299 | -146.75025 | 6187 ft | 239 kts | 198° |
| 2026-04-17 16:03 | 66.53717 | -146.76250 | 6014 ft | 236 kts | 198° |
| 2026-04-17 16:03 | 66.52157 | -146.77443 | 5923 ft | 231 kts | 197° |
| 2026-04-17 16:03 | 66.50646 | -146.78602 | 5863 ft | 225 kts | 198° |
| 2026-04-17 16:04 | 66.49156 | -146.79746 | 5796 ft | 223 kts | 198° |
| 2026-04-17 16:04 | 66.47679 | -146.80880 | 5769 ft | 220 kts | 198° |
| 2026-04-17 16:04 | 66.46228 | -146.81989 | 5767 ft | 217 kts | 198° |
| 2026-04-17 16:04 | 66.44794 | -146.83090 | 5768 ft | 215 kts | 197° |
| 2026-04-17 16:05 | 66.43370 | -146.84176 | 5783 ft | 213 kts | 197° |
| 2026-04-17 16:05 | 66.41956 | -146.85258 | 5779 ft | 212 kts | 197° |
| 2026-04-17 16:05 | 66.40544 | -146.86326 | 5776 ft | 212 kts | 197° |
| 2026-04-17 16:05 | 66.39137 | -146.87401 | 5779 ft | 211 kts | 198° |
| 2026-04-17 16:06 | 66.37730 | -146.88471 | 5778 ft | 211 kts | 197° |
| 2026-04-17 16:06 | 66.36326 | -146.89532 | 5778 ft | 211 kts | 197° |
| 2026-04-17 16:06 | 66.34923 | -146.90598 | 5777 ft | 211 kts | 198° |
| 2026-04-17 16:06 | 66.33517 | -146.91669 | 5778 ft | 211 kts | 198° |
| 2026-04-17 16:07 | 66.32113 | -146.92732 | 5742 ft | 213 kts | 197° |
| 2026-04-17 16:07 | 66.30697 | -146.93797 | 5748 ft | 211 kts | 197° |
| 2026-04-17 16:07 | 66.29290 | -146.94861 | 5745 ft | 211 kts | 197° |
| 2026-04-17 16:07 | 66.27886 | -146.95918 | 5744 ft | 211 kts | 197° |
| 2026-04-17 16:08 | 66.26478 | -146.96978 | 5743 ft | 211 kts | 197° |
| 2026-04-17 16:08 | 66.25076 | -146.98035 | 5739 ft | 211 kts | 197° |
| 2026-04-17 16:08 | 66.23670 | -146.99092 | 5743 ft | 211 kts | 197° |
| 2026-04-17 16:08 | 66.22267 | -147.00145 | 5741 ft | 211 kts | 197° |
| 2026-04-17 16:09 | 66.20862 | -147.01197 | 5743 ft | 211 kts | 197° |
| 2026-04-17 16:09 | 66.19456 | -147.02254 | 5743 ft | 211 kts | 197° |
| 2026-04-17 16:09 | 66.18054 | -147.03305 | 5743 ft | 210 kts | 197° |
| 2026-04-17 16:09 | 66.16656 | -147.04341 | 5743 ft | 211 kts | 197° |
| 2026-04-17 16:10 | 66.16087 | -147.04766 | 5743 ft | 211 kts | 197° |
| 2026-04-17 16:36 | 66.16079 | -147.04771 | 5743 ft | 211 kts | 197° |
| 2026-04-17 16:36 | 66.14731 | -147.05778 | 5738 ft | 210 kts | 197° |
| 2026-04-17 16:36 | 66.13334 | -147.06825 | 5737 ft | 210 kts | 197° |
| 2026-04-17 16:36 | 66.11936 | -147.07865 | 5739 ft | 210 kts | 197° |
| 2026-04-17 16:37 | 66.10534 | -147.08909 | 5741 ft | 210 kts | 197° |
| 2026-04-17 16:37 | 66.09150 | -147.09938 | 5742 ft | 210 kts | 197° |
| 2026-04-17 16:37 | 66.07728 | -147.10994 | 5737 ft | 210 kts | 197° |
| 2026-04-17 16:37 | 66.06327 | -147.12032 | 5763 ft | 209 kts | 197° |
| 2026-04-17 16:38 | 66.04970 | -147.13034 | 5887 ft | 204 kts | 197° |
| 2026-04-17 16:38 | 66.03602 | -147.14048 | 5992 ft | 201 kts | 197° |
| 2026-04-17 16:38 | 66.02259 | -147.15038 | 5999 ft | 204 kts | 197° |
| 2026-04-17 16:38 | 66.00895 | -147.16048 | 6003 ft | 206 kts | 197° |
| 2026-04-17 16:39 | 65.99517 | -147.17065 | 6004 ft | 207 kts | 197° |
| 2026-04-17 16:39 | 65.98136 | -147.18082 | 6034 ft | 206 kts | 197° |
| 2026-04-17 16:39 | 65.96758 | -147.19095 | 6034 ft | 207 kts | 197° |
| 2026-04-17 16:39 | 65.95379 | -147.20105 | 6034 ft | 208 kts | 197° |
| 2026-04-17 16:40 | 65.93993 | -147.21129 | 6035 ft | 208 kts | 197° |
| 2026-04-17 16:40 | 65.92600 | -147.22152 | 6037 ft | 210 kts | 197° |
| 2026-04-17 16:40 | 65.91201 | -147.23168 | 6038 ft | 210 kts | 197° |
| 2026-04-17 16:40 | 65.89797 | -147.24195 | 6039 ft | 210 kts | 197° |
| 2026-04-17 16:41 | 65.88404 | -147.25218 | 6037 ft | 209 kts | 197° |
| 2026-04-17 16:41 | 65.87002 | -147.26242 | 6041 ft | 210 kts | 197° |
| 2026-04-17 16:41 | 65.85602 | -147.27265 | 6043 ft | 211 kts | 197° |
| 2026-04-17 16:41 | 65.84193 | -147.28287 | 6040 ft | 210 kts | 197° |
| 2026-04-17 16:42 | 65.82796 | -147.29303 | 6042 ft | 211 kts | 197° |
| 2026-04-17 16:42 | 65.81384 | -147.30334 | 6044 ft | 211 kts | 197° |
| 2026-04-17 16:42 | 65.79978 | -147.31353 | 6042 ft | 211 kts | 197° |
| 2026-04-17 16:42 | 65.78571 | -147.32373 | 6034 ft | 211 kts | 197° |
| 2026-04-17 16:43 | 65.77165 | -147.33394 | 6032 ft | 211 kts | 197° |
| 2026-04-17 16:43 | 65.75764 | -147.34405 | 6035 ft | 211 kts | 197° |
| 2026-04-17 16:43 | 65.74351 | -147.35425 | 6032 ft | 211 kts | 197° |
| 2026-04-17 16:43 | 65.72944 | -147.36444 | 6035 ft | 212 kts | 197° |
| 2026-04-17 16:44 | 65.71530 | -147.37463 | 6034 ft | 212 kts | 197° |
| 2026-04-17 16:44 | 65.70117 | -147.38481 | 6034 ft | 211 kts | 197° |
| 2026-04-17 16:44 | 65.68713 | -147.39495 | 6033 ft | 211 kts | 197° |
| 2026-04-17 16:44 | 65.67308 | -147.40502 | 6032 ft | 211 kts | 197° |
| 2026-04-17 16:45 | 65.65901 | -147.41517 | 6033 ft | 211 kts | 197° |
| 2026-04-17 16:45 | 65.64495 | -147.42521 | 6031 ft | 210 kts | 197° |
| 2026-04-17 16:45 | 65.63094 | -147.43530 | 6028 ft | 210 kts | 197° |
| 2026-04-17 16:45 | 65.61692 | -147.44532 | 6032 ft | 210 kts | 197° |
| 2026-04-17 16:46 | 65.60289 | -147.45532 | 6032 ft | 210 kts | 197° |
| 2026-04-17 16:46 | 65.58881 | -147.46539 | 6030 ft | 210 kts | 197° |
| 2026-04-17 16:46 | 65.57478 | -147.47540 | 6032 ft | 210 kts | 197° |
| 2026-04-17 16:46 | 65.56075 | -147.48536 | 6031 ft | 210 kts | 197° |
| 2026-04-17 16:47 | 65.54671 | -147.49547 | 6030 ft | 211 kts | 197° |
| 2026-04-17 16:47 | 65.53266 | -147.50538 | 6031 ft | 211 kts | 197° |
| 2026-04-17 16:47 | 65.51861 | -147.51535 | 6030 ft | 210 kts | 197° |
| 2026-04-17 16:47 | 65.50460 | -147.52537 | 6033 ft | 210 kts | 197° |
| 2026-04-17 16:48 | 65.49054 | -147.53530 | 6030 ft | 210 kts | 197° |
| 2026-04-17 16:48 | 65.47649 | -147.54523 | 6032 ft | 211 kts | 197° |
| 2026-04-17 16:48 | 65.46243 | -147.55518 | 6031 ft | 210 kts | 197° |
| 2026-04-17 16:48 | 65.44838 | -147.56513 | 6031 ft | 210 kts | 197° |
| 2026-04-17 16:49 | 65.43437 | -147.57501 | 6032 ft | 210 kts | 197° |
| 2026-04-17 16:49 | 65.42034 | -147.58492 | 6030 ft | 210 kts | 197° |
| 2026-04-17 16:49 | 65.40632 | -147.59478 | 6032 ft | 210 kts | 197° |
| 2026-04-17 16:49 | 65.39227 | -147.60468 | 6032 ft | 211 kts | 197° |
| 2026-04-17 16:50 | 65.37822 | -147.61458 | 6031 ft | 211 kts | 197° |
| 2026-04-17 16:50 | 65.36412 | -147.62445 | 6032 ft | 211 kts | 197° |
| 2026-04-17 16:50 | 65.35008 | -147.63427 | 6030 ft | 210 kts | 197° |
| 2026-04-17 16:50 | 65.33604 | -147.64414 | 6032 ft | 211 kts | 197° |
| 2026-04-17 16:51 | 65.32196 | -147.65402 | 6032 ft | 210 kts | 197° |
| 2026-04-17 16:51 | 65.30790 | -147.66384 | 6031 ft | 210 kts | 197° |
| 2026-04-17 16:51 | 65.29383 | -147.67363 | 6032 ft | 210 kts | 197° |
| 2026-04-17 16:51 | 65.27980 | -147.68343 | 6032 ft | 210 kts | 197° |
| 2026-04-17 16:52 | 65.26576 | -147.69325 | 6032 ft | 210 kts | 197° |
| 2026-04-17 16:52 | 65.25170 | -147.70297 | 6032 ft | 210 kts | 197° |
| 2026-04-17 16:52 | 65.23763 | -147.71281 | 6032 ft | 211 kts | 197° |
| 2026-04-17 16:52 | 65.22359 | -147.72253 | 6033 ft | 211 kts | 197° |
| 2026-04-17 16:53 | 65.20950 | -147.73231 | 6021 ft | 211 kts | 197° |
| 2026-04-17 16:53 | 65.19503 | -147.74234 | 5791 ft | 220 kts | 197° |
| 2026-04-17 16:53 | 65.18016 | -147.75267 | 5577 ft | 225 kts | 197° |
| 2026-04-17 16:53 | 65.16504 | -147.76311 | 5365 ft | 228 kts | 196° |
| 2026-04-17 16:54 | 65.14975 | -147.77366 | 5157 ft | 230 kts | 196° |
| 2026-04-17 16:54 | 65.13435 | -147.78428 | 4946 ft | 231 kts | 196° |
| 2026-04-17 16:54 | 65.12187 | -147.79292 | 4803 ft | 231 kts | 196° |
| 2026-04-17 16:54 | 65.10673 | -147.80335 | 4666 ft | 229 kts | 196° |
| 2026-04-17 16:55 | 65.09176 | -147.81361 | 4564 ft | 227 kts | 196° |
| 2026-04-17 16:55 | 65.07638 | -147.82422 | 4523 ft | 223 kts | 196° |
| 2026-04-17 16:55 | 65.06171 | -147.83421 | 4522 ft | 218 kts | 196° |
| 2026-04-17 16:55 | 65.04725 | -147.84418 | 4525 ft | 215 kts | 196° |
| 2026-04-17 16:56 | 65.03297 | -147.85395 | 4527 ft | 213 kts | 196° |
| 2026-04-17 16:56 | 65.01878 | -147.86367 | 4527 ft | 211 kts | 196° |
| 2026-04-17 16:56 | 65.00468 | -147.87330 | 4528 ft | 210 kts | 196° |
| 2026-04-17 16:56 | 64.99066 | -147.88284 | 4527 ft | 210 kts | 196° |
| 2026-04-17 16:57 | 64.97664 | -147.89244 | 4530 ft | 210 kts | 196° |
| 2026-04-17 16:57 | 64.96262 | -147.90195 | 4526 ft | 210 kts | 196° |
| 2026-04-17 16:57 | 64.94856 | -147.91151 | 4531 ft | 210 kts | 196° |
| 2026-04-17 16:57 | 64.93451 | -147.92109 | 4529 ft | 210 kts | 196° |
| 2026-04-17 16:58 | 64.92045 | -147.93064 | 4532 ft | 210 kts | 196° |
| 2026-04-17 16:58 | 64.90641 | -147.94016 | 4531 ft | 210 kts | 196° |
| 2026-04-17 16:58 | 64.89234 | -147.94968 | 4529 ft | 210 kts | 196° |
| 2026-04-17 16:58 | 64.87831 | -147.95919 | 4529 ft | 210 kts | 196° |
| 2026-04-17 16:59 | 64.86423 | -147.96874 | 4531 ft | 210 kts | 196° |
| 2026-04-17 16:59 | 64.85023 | -147.97813 | 4543 ft | 209 kts | 196° |
| 2026-04-17 16:59 | 64.83621 | -147.98759 | 4543 ft | 209 kts | 196° |
| 2026-04-17 16:59 | 64.82225 | -147.99703 | 4538 ft | 208 kts | 196° |
| 2026-04-17 17:00 | 64.80840 | -148.00641 | 4536 ft | 206 kts | 196° |
| 2026-04-17 17:00 | 64.79467 | -148.01562 | 4530 ft | 204 kts | 196° |
| 2026-04-17 17:00 | 64.78096 | -148.02457 | 4289 ft | 211 kts | 195° |
| 2026-04-17 17:00 | 64.76640 | -148.03384 | 4007 ft | 217 kts | 195° |
| 2026-04-17 17:01 | 64.75172 | -148.04322 | 3745 ft | 219 kts | 195° |
| 2026-04-17 17:01 | 64.73720 | -148.05252 | 3480 ft | 219 kts | 195° |
| 2026-04-17 17:01 | 64.72253 | -148.06194 | 3208 ft | 219 kts | 195° |
| 2026-04-17 17:01 | 64.70795 | -148.07135 | 3080 ft | 212 kts | 195° |
| 2026-04-17 17:02 | 64.69414 | -148.07986 | 3056 ft | 200 kts | 191° |
| 2026-04-17 17:02 | 64.68081 | -148.07501 | 3041 ft | 193 kts | 153° |
| 2026-04-17 17:02 | 64.67228 | -148.05218 | 3043 ft | 189 kts | 111° |
| 2026-04-17 17:02 | 64.67274 | -148.02262 | 3035 ft | 186 kts | 66° |
| 2026-04-17 17:03 | 64.68204 | -148.00271 | 3035 ft | 184 kts | 24° |
| 2026-04-17 17:03 | 64.69458 | -147.99945 | 3006 ft | 184 kts | 358° |
| 2026-04-17 17:03 | 64.70756 | -148.00106 | 2926 ft | 186 kts | 356° |
| 2026-04-17 17:03 | 64.72076 | -148.00360 | 2671 ft | 192 kts | 353° |
| 2026-04-17 17:04 | 64.73374 | -148.00364 | 2668 ft | 183 kts | 5° |
| 2026-04-17 17:04 | 64.74612 | -147.99594 | 2372 ft | 181 kts | 25° |
| 2026-04-17 17:04 | 64.75615 | -147.98071 | 2005 ft | 165 kts | 40° |
| 2026-04-17 17:04 | 64.76402 | -147.96254 | 1651 ft | 157 kts | 45° |
| 2026-04-17 17:05 | 64.77189 | -147.94456 | 1168 ft | 156 kts | 45° |
| 2026-04-17 17:05 | 64.77947 | -147.92858 | 1013 ft | 136 kts | 39° |
| 2026-04-17 17:05 | 64.78656 | -147.91571 | 876 ft | 123 kts | 37° |
| 2026-04-17 17:05 | 64.79305 | -147.90379 | 712 ft | 112 kts | 38° |
| 2026-04-17 17:06 | 64.79878 | -147.89315 | 595 ft | 102 kts | 39° |
| 2026-04-17 17:06 | 64.80414 | -147.88341 | 462 ft | 93 kts | 37° |
| 2026-04-17 17:06 | 64.80880 | -147.87494 | 438 ft | 77 kts | 41° |
| 2026-04-17 17:06 | 64.81214 | -147.86858 | 441 ft | 47 kts | 38° |
| 2026-04-17 17:07 | 64.81442 | -147.86418 | 441 ft | 40 kts | 36° |
| 2026-04-17 17:07 | 64.81611 | -147.86173 | 442 ft | 20 kts | 3° |
| 2026-04-17 17:07 | 64.81655 | -147.86328 | 443 ft | 17 kts | 249° |
| 2026-04-17 17:07 | 64.81537 | -147.86582 | 443 ft | 27 kts | 218° |
| 2026-04-17 17:08 | 64.81377 | -147.86888 | 440 ft | 32 kts | 218° |
| 2026-04-17 17:08 | 64.81196 | -147.87202 | 432 ft | 34 kts | 219° |
| 2026-04-17 17:08 | 64.81019 | -147.87526 | 443 ft | 21 kts | 217° |
| 2026-04-17 17:08 | 64.80999 | -147.87712 | 443 ft | 11 kts | 304° |
| 2026-04-17 17:09 | 64.81022 | -147.87909 | 443 ft | 14 kts | 271° |
| 2026-04-17 17:09 | 64.81013 | -147.88030 | 443 ft | 0 kts | 222° |